createdAt,value
2022-09-12T00:00:00.160Z,23.3
2022-09-12T00:05:00.105Z,23.3
2022-09-12T00:10:00.181Z,23.3
2022-09-12T00:15:00.106Z,23.2
2022-09-12T00:20:00.158Z,23.1
2022-09-12T00:25:00.109Z,23.0
2022-09-12T00:30:00.148Z,23.0
2022-09-12T00:35:00.100Z,23.0
2022-09-12T00:40:00.259Z,22.9
2022-09-12T00:45:01.001Z,22.9
2022-09-12T00:50:00.139Z,22.9
2022-09-12T00:55:00.125Z,22.9
2022-09-12T01:00:00.146Z,22.9
2022-09-12T01:05:00.094Z,22.9
2022-09-12T01:10:00.151Z,22.8
2022-09-12T01:15:00.087Z,22.8
2022-09-12T01:20:00.165Z,22.8
2022-09-12T01:25:00.110Z,22.8
2022-09-12T01:30:00.138Z,22.8
2022-09-12T01:35:00.112Z,22.8
2022-09-12T01:40:00.265Z,22.7
2022-09-12T01:45:00.081Z,22.8
2022-09-12T01:50:00.164Z,22.8
2022-09-12T01:55:00.112Z,22.7
2022-09-12T02:00:00.161Z,22.7
2022-09-12T02:05:00.101Z,22.7
2022-09-12T02:10:00.135Z,22.6
2022-09-12T02:15:00.093Z,22.7
2022-09-12T02:20:00.233Z,22.6
2022-09-12T02:25:00.097Z,22.6
2022-09-12T02:30:00.159Z,22.6
2022-09-12T02:35:00.095Z,22.6
2022-09-12T02:40:00.264Z,22.5
2022-09-12T02:45:00.145Z,22.5
2022-09-12T02:50:00.124Z,22.5
2022-09-12T02:55:00.103Z,22.6
2022-09-12T03:00:00.189Z,22.5
2022-09-12T03:05:00.093Z,22.5
2022-09-12T03:10:00.319Z,22.5
2022-09-12T03:15:00.106Z,22.5
2022-09-12T03:20:00.144Z,22.5
2022-09-12T03:25:00.114Z,22.4
2022-09-12T03:30:00.176Z,22.4
2022-09-12T03:35:00.093Z,22.5
2022-09-12T03:40:00.212Z,22.5
2022-09-12T03:45:00.102Z,22.4
2022-09-12T03:50:00.144Z,22.4
2022-09-12T03:55:00.128Z,22.4
2022-09-12T04:00:00.167Z,22.4
2022-09-12T04:05:00.094Z,22.4
2022-09-12T04:10:00.159Z,22.3
2022-09-12T04:15:00.111Z,22.4
2022-09-12T04:20:00.144Z,22.3
2022-09-12T04:25:00.103Z,22.3
2022-09-12T04:30:00.157Z,22.3
2022-09-12T04:35:00.106Z,22.3
2022-09-12T04:40:00.270Z,22.3
2022-09-12T04:45:00.114Z,22.3
2022-09-12T04:50:01.229Z,22.2
2022-09-12T04:55:00.092Z,22.2
2022-09-12T05:00:02.799Z,22.2
2022-09-12T05:05:00.115Z,22.2
2022-09-12T05:10:00.125Z,22.2
2022-09-12T05:15:00.099Z,22.2
2022-09-12T05:20:00.161Z,22.2
2022-09-12T05:25:00.098Z,22.1
2022-09-12T05:30:00.177Z,22.1
2022-09-12T05:35:00.081Z,22.1
2022-09-12T05:40:00.240Z,22.1
2022-09-12T05:45:00.137Z,22.1
2022-09-12T05:50:00.130Z,22.1
2022-09-12T05:55:00.103Z,22.1
2022-09-12T06:00:00.162Z,22.1
2022-09-12T06:05:00.105Z,22.1
2022-09-12T06:10:00.135Z,22.1
2022-09-12T06:15:00.107Z,22.1
2022-09-12T06:20:00.176Z,22.1
2022-09-12T06:25:00.096Z,22.1
2022-09-12T06:30:00.145Z,22.2
2022-09-12T06:35:00.097Z,22.1
2022-09-12T06:40:00.292Z,22.2
2022-09-12T06:45:00.150Z,22.1
2022-09-12T06:50:00.130Z,22.2
2022-09-12T06:55:00.099Z,22.1
2022-09-12T07:00:00.202Z,22.0
2022-09-12T07:05:00.097Z,22.0
2022-09-12T07:10:00.146Z,22.0
2022-09-12T07:15:00.100Z,21.9
2022-09-12T07:20:00.254Z,21.9
2022-09-12T07:25:00.102Z,21.8
2022-09-12T07:30:00.158Z,21.8
2022-09-12T07:35:00.092Z,21.7
2022-09-12T07:40:00.350Z,21.6
2022-09-12T07:45:00.125Z,21.6
2022-09-12T07:50:00.149Z,21.6
2022-09-12T07:55:00.098Z,21.6
2022-09-12T08:00:00.184Z,21.5
2022-09-12T08:05:00.121Z,21.5
2022-09-12T08:10:00.137Z,21.5
2022-09-12T08:15:00.103Z,21.5
2022-09-12T08:20:00.157Z,21.5
2022-09-12T08:25:00.104Z,21.5
2022-09-12T08:30:00.163Z,21.5
2022-09-12T08:35:00.098Z,21.6
2022-09-12T08:40:00.250Z,21.6
2022-09-12T08:45:00.103Z,21.7
2022-09-12T08:50:00.158Z,21.8
2022-09-12T08:55:00.105Z,21.8
2022-09-12T09:00:00.191Z,21.8
2022-09-12T09:05:00.096Z,21.9
2022-09-12T09:10:00.131Z,21.9
2022-09-12T09:15:00.109Z,22.0
2022-09-12T09:20:00.168Z,22.0
2022-09-12T09:25:00.097Z,22.0
2022-09-12T09:30:00.164Z,22.1
2022-09-12T09:35:00.101Z,22.1
2022-09-12T09:40:00.261Z,22.1
2022-09-12T09:45:00.139Z,22.2
2022-09-12T09:50:00.140Z,22.2
2022-09-12T09:55:00.122Z,22.2
2022-09-12T10:00:00.285Z,22.3
2022-09-12T10:05:00.094Z,22.3
2022-09-12T10:10:00.117Z,22.3
2022-09-12T10:15:00.105Z,22.3
2022-09-12T10:20:17.787Z,22.4
2022-09-12T10:25:00.108Z,22.4
2022-09-12T10:30:00.148Z,22.4
2022-09-12T10:35:00.121Z,22.4
2022-09-12T10:40:00.249Z,22.4
2022-09-12T10:45:00.128Z,22.4
2022-09-12T10:50:00.158Z,22.5
2022-09-12T10:55:00.107Z,22.5
2022-09-12T11:00:00.171Z,22.4
2022-09-12T11:05:00.094Z,22.5
2022-09-12T11:10:00.137Z,22.5
2022-09-12T11:15:00.102Z,22.5
2022-09-12T11:20:00.175Z,22.5
2022-09-12T11:25:00.117Z,22.5
2022-09-12T11:30:00.159Z,22.5
2022-09-12T11:35:00.136Z,22.5
2022-09-12T11:40:00.191Z,22.5
2022-09-12T11:45:00.106Z,22.5
2022-09-12T11:50:00.161Z,22.5
2022-09-12T11:55:00.103Z,22.6
2022-09-12T12:00:00.174Z,22.6
2022-09-12T12:05:00.093Z,22.6
2022-09-12T12:10:00.148Z,22.6
2022-09-12T12:15:00.124Z,22.6
2022-09-12T12:20:05.714Z,22.7
2022-09-12T12:25:00.082Z,22.7
2022-09-12T12:30:01.288Z,22.7
2022-09-12T12:35:00.109Z,22.7
2022-09-12T12:40:00.272Z,22.7
2022-09-12T12:45:00.116Z,22.7
2022-09-12T12:50:01.034Z,22.8
2022-09-12T12:55:00.126Z,22.8
2022-09-12T13:00:00.165Z,22.8
2022-09-12T13:05:00.114Z,22.8
2022-09-12T13:10:00.131Z,22.8
2022-09-12T13:15:00.090Z,22.8
2022-09-12T13:20:17.136Z,22.9
2022-09-12T13:25:00.087Z,22.9
2022-09-12T13:30:00.139Z,22.9
2022-09-12T13:35:00.117Z,22.9
2022-09-12T13:40:00.225Z,22.9
2022-09-12T13:45:00.097Z,22.9
2022-09-12T13:50:00.157Z,22.9
2022-09-12T13:55:00.108Z,23.0
2022-09-12T14:00:00.171Z,22.9
2022-09-12T14:05:00.136Z,22.9
2022-09-12T14:10:00.132Z,22.9
2022-09-12T14:15:00.104Z,23.0
2022-09-12T14:20:00.174Z,23.0
2022-09-12T14:25:00.111Z,23.0
2022-09-12T14:30:00.149Z,23.0
2022-09-12T14:35:00.109Z,23.0
2022-09-12T14:40:01.325Z,23.0
2022-09-12T14:45:00.103Z,23.0
2022-09-12T14:50:01.067Z,23.0
2022-09-12T14:55:00.105Z,23.0
2022-09-12T15:00:00.172Z,23.0
2022-09-12T15:05:00.113Z,23.0
2022-09-12T15:10:00.113Z,23.0
2022-09-12T15:15:00.102Z,23.0
2022-09-12T15:20:00.207Z,23.0
2022-09-12T15:25:00.096Z,23.0
2022-09-12T15:30:00.265Z,23.0
2022-09-12T15:35:00.126Z,23.0
2022-09-12T15:40:00.368Z,23.1
2022-09-12T15:45:02.456Z,23.0
2022-09-12T15:50:00.266Z,23.0
2022-09-12T15:55:00.105Z,23.1
2022-09-12T16:00:00.181Z,23.0
2022-09-12T16:05:01.447Z,23.1
2022-09-12T16:10:00.182Z,23.1
2022-09-12T16:15:00.102Z,23.1
2022-09-12T16:20:00.155Z,23.1
2022-09-12T16:25:01.335Z,23.0
2022-09-12T16:30:00.142Z,23.1
2022-09-12T16:35:00.158Z,23.1
2022-09-12T16:40:00.351Z,23.1
2022-09-12T16:45:00.103Z,23.0
2022-09-12T16:50:00.176Z,23.1
2022-09-12T16:55:00.139Z,23.0
2022-09-12T17:00:00.204Z,23.0
2022-09-12T17:05:00.111Z,23.0
2022-09-12T17:10:00.157Z,23.0
2022-09-12T17:15:00.117Z,23.0
2022-09-12T17:20:00.180Z,23.0
2022-09-12T17:25:00.142Z,23.0
2022-09-12T17:30:00.157Z,23.1
2022-09-12T17:35:00.127Z,23.0
2022-09-12T17:40:00.355Z,23.0
2022-09-12T17:45:00.107Z,23.0
2022-09-12T17:50:14.743Z,23.1
2022-09-12T17:55:01.466Z,23.1
2022-09-12T18:00:00.155Z,23.1
2022-09-12T18:05:00.127Z,23.1
2022-09-12T18:10:00.154Z,23.1
2022-09-12T18:15:00.114Z,23.1
2022-09-12T18:20:00.172Z,23.1
2022-09-12T18:25:00.146Z,23.1
2022-09-12T18:30:19.909Z,23.1
2022-09-12T18:35:00.110Z,23.1
2022-09-12T18:40:00.431Z,23.1
2022-09-12T18:45:00.102Z,23.2
2022-09-12T18:50:00.139Z,23.2
2022-09-12T18:55:00.146Z,23.1
2022-09-12T19:00:00.153Z,23.1
2022-09-12T19:05:00.121Z,23.1
2022-09-12T19:10:00.161Z,23.2
2022-09-12T19:15:00.111Z,23.2
2022-09-12T19:20:00.265Z,23.2
2022-09-12T19:25:00.139Z,23.2
2022-09-12T19:30:00.156Z,23.2
2022-09-12T19:35:00.157Z,23.2
2022-09-12T19:40:00.259Z,23.2
2022-09-12T19:45:00.129Z,23.2
2022-09-12T19:50:00.170Z,23.2
2022-09-12T19:55:00.109Z,23.2
2022-09-12T20:00:00.174Z,23.2
2022-09-12T20:05:00.092Z,23.2
2022-09-12T20:10:00.180Z,23.2
2022-09-12T20:15:00.107Z,23.2
2022-09-12T20:25:00.149Z,23.2
2022-09-12T20:30:00.134Z,23.2
2022-09-12T20:35:00.108Z,23.1
2022-09-12T20:40:00.270Z,23.2
2022-09-12T20:45:01.485Z,23.1
2022-09-12T20:50:00.157Z,23.2
2022-09-12T20:55:02.360Z,23.2
2022-09-12T21:00:00.203Z,23.2
2022-09-12T21:05:00.172Z,23.2
2022-09-12T21:10:00.261Z,23.2
2022-09-12T21:15:00.130Z,23.2
2022-09-12T21:20:00.138Z,23.2
2022-09-12T21:25:00.148Z,23.2
2022-09-12T21:30:00.137Z,23.2
2022-09-12T21:35:00.130Z,23.2
2022-09-12T21:40:00.222Z,23.2
2022-09-12T21:45:00.096Z,23.2
2022-09-12T21:50:00.144Z,23.2
2022-09-12T21:55:00.144Z,23.2
2022-09-12T22:00:00.114Z,23.2
2022-09-12T22:05:01.238Z,23.2
2022-09-12T22:10:00.155Z,23.3
2022-09-12T22:15:05.850Z,23.2
2022-09-12T22:20:00.142Z,23.2
2022-09-12T22:25:00.380Z,23.2
2022-09-12T22:30:00.130Z,23.2
2022-09-12T22:35:00.118Z,23.2
2022-09-12T22:40:00.231Z,23.3
2022-09-12T22:45:00.104Z,23.3
2022-09-12T22:50:00.150Z,23.2
2022-09-12T22:55:00.151Z,23.2
2022-09-12T23:00:00.140Z,23.3
2022-09-12T23:05:00.094Z,23.3
2022-09-12T23:10:00.177Z,23.3
2022-09-12T23:15:00.211Z,23.3
2022-09-12T23:20:00.140Z,23.3
2022-09-12T23:25:00.374Z,23.3
2022-09-12T23:30:00.136Z,23.3
2022-09-12T23:35:00.129Z,23.3
2022-09-12T23:40:00.213Z,23.3
2022-09-12T23:45:00.091Z,23.3
2022-09-12T23:50:00.144Z,23.3
2022-09-12T23:55:00.242Z,23.3
